Chang-hua, Taiwan
Current Conditions -  °F | °C
As of 12:00 PM on Wednesday 26 Nov 2014 (Local Time) from RCMQ Reporting Station
Scattered Clouds Scattered Clouds  
Wind Chill: 81°   Ceiling: Unl
Heat Index: 82°   Visibility: 6mi
Dew Point: 63°   Wind: 16mph
Humidity: 54%   Direction: 360°N
Pressure: 29.91"   Gusts: NA
Location:  24.08°N, 120.53°E
Report Text: RCMQ 260400Z 36014KT 9999 FEW010 SCT080 27/17 Q1013 NOSIG RMK A2993
Loading
Personal Weather Stations






























Interactive Weather Map New forecast layout! Learn more

10-Day Weather Forecast

Advertisements
Track Severe Weather on mobile